Amboy, WA

5:54 PM PST on December 26, 2014 (GMT -0800)
Rock Creek Area | Change Station
CLOSE
Current Station
Personal Weather Station
Location: Battle Ground, WA
Elevation: 420 ft
Nearby Weather Stations

Elev 420 ft 45.85 °N, 122.52 °W | Updated 1 minute ago

Overcast
Overcast
41.2 °F
Feels Like 41 °F
N
0.0
Wind Variable Wind from North
Gusts 11.0 mph

Today
High -- | Low -- °F
--% Chance of Precip.
Yesterday
High -- | Low -- °F
Precip. -- in
7:50 AM 4:31 PM
Waxing Crescent, 31% visible
Pressure 30.34 in
Visibility 10.0 miles
Clouds Scattered Clouds 1700 ft
Overcast 5500 ft
Windchill 41 °F
Dew Point 41 °F
Humidity 100%
Rainfall 0.02 in
Snow Depth Not available.
UV 0.0 out of 12
Pollen 1.20 out of 12
Air Quality Not available.
Flu Activity Not available.
SPECI KSPB 270111Z AUTO 00000KT 10SM SCT017 OVC055 07/05 A3034 RMK AO2 T00720050

More Conditions Fewer Conditions

Pressure 30.34 in
Visibility 10.0 miles
Clouds Scattered Clouds 1700 ft
Overcast 5500 ft
Windchill 41 °F
Dew Point 41 °F
Humidity 100%
Rainfall 0.02 in
Snow Depth Not available.
UV 0.0 out of 12
Pollen 1.20 out of 12
Air Quality Not available.
Flu Activity Not available.
SPECI KSPB 270111Z AUTO 00000KT 10SM SCT017 OVC055 07/05 A3034 RMK AO2 T00720050

More Conditions Fewer Conditions

10-Day Weather Forecast

Almanac

Astronomy

Dec. 26, 2014 Rise Set
Actual Time
Civil Twilight
Nautical Twilight
Astronomical Twilight
Moon
Length of Visible Light
Length of Day
Tomorrow will be .
, % of the Moon is Illuminated

Today's Extremes

State Highs State Lows

Community

WunderPhotos

Upload Photos

1,780,804 photos uploaded!

WunderBlogs® & News

Nearby

Air Quality

  Air Quality AQ Index Pollutant
Not available.

Snow Depth

Station Depth Elevation

Earthquake Activity

City Distance Mag. Time & Date
Minimum magnitude displayed is 2.5.

Coastal Water Temperatures

Place Temperature

Nearby Weather Stations